Time;durP1;ratioP1;P1;durP2;ratioP2;P2;SDS_P1;SDS_P2;PMS_P1;PMS_P2;Temp;Humidity;BMP_temperature;BMP_pressure;BME280_temperature;BME280_humidity;BME280_pressure;Samples;Min_cycle;Max_cycle;Signal;HPM_P1;HPM_P2
2021/05/10 00:00:28;;;;;;;3.85;1.30;;;19.90;60.50;;;;;;5052502;28;20229;-66
2021/05/10 00:02:53;;;;;;;6.25;1.65;;;19.90;60.30;;;;;;5051745;28;20032;-67
2021/05/10 00:05:19;;;;;;;4.30;1.25;;;19.90;60.50;;;;;;5050797;28;20450;-69
2021/05/10 00:07:44;;;;;;;3.42;1.40;;;19.90;60.30;;;;;;5034073;28;20075;-65
2021/05/10 00:10:10;;;;;;;3.60;1.30;;;19.90;60.50;;;;;;5051719;28;20090;-68
2021/05/10 00:12:36;;;;;;;4.93;1.40;;;19.90;60.30;;;;;;5051839;28;20033;-64
2021/05/10 00:15:03;;;;;;;4.95;1.52;;;19.90;60.30;;;;;;5052300;28;20049;-66
2021/05/10 00:17:29;;;;;;;5.45;1.50;;;19.90;60.40;;;;;;5051761;28;20139;-67
2021/05/10 00:19:55;;;;;;;2.65;1.10;;;19.90;60.40;;;;;;5051521;28;20563;-69
2021/05/10 00:22:20;;;;;;;4.35;1.58;;;19.90;60.40;;;;;;5051834;28;20512;-69
2021/05/10 00:24:46;;;;;;;4.22;1.45;;;19.90;60.60;;;;;;5051247;28;20069;-67
2021/05/10 00:27:11;;;;;;;4.97;1.30;;;19.90;60.50;;;;;;5032963;28;20033;-68
2021/05/10 00:29:37;;;;;;;4.70;1.40;;;19.90;60.70;;;;;;5032793;28;20381;-65
2021/05/10 00:32:02;;;;;;;6.43;1.50;;;19.90;60.60;;;;;;5050795;28;20033;-65
2021/05/10 00:34:28;;;;;;;3.63;1.40;;;19.80;60.50;;;;;;5050800;28;20467;-66
2021/05/10 00:36:54;;;;;;;6.20;1.50;;;19.90;60.80;;;;;;5032416;28;20028;-68
2021/05/10 00:39:19;;;;;;;4.57;1.35;;;19.90;61.00;;;;;;5051466;28;20064;-65
2021/05/10 00:41:45;;;;;;;3.40;1.38;;;19.80;60.70;;;;;;5051036;28;20032;-66
2021/05/10 00:44:10;;;;;;;3.70;1.35;;;19.90;60.60;;;;;;5032831;28;20025;-68
2021/05/10 00:46:38;;;;;;;6.57;1.40;;;19.80;60.50;;;;;;5051529;28;20036;-68
2021/05/10 00:49:04;;;;;;;5.18;1.40;;;19.80;61.10;;;;;;5032969;28;20082;-68
2021/05/10 00:51:30;;;;;;;3.05;1.30;;;19.80;60.60;;;;;;5051757;28;20107;-65
2021/05/10 00:53:56;;;;;;;5.88;1.33;;;19.90;60.80;;;;;;5051125;28;20083;-72
2021/05/10 00:56:22;;;;;;;4.03;1.35;;;19.80;61.00;;;;;;5043472;28;20496;-67
2021/05/10 00:58:48;;;;;;;4.82;1.50;;;19.90;61.20;;;;;;5033395;28;20488;-66
2021/05/10 01:01:14;;;;;;;3.95;1.52;;;19.80;61.30;;;;;;5033458;28;20029;-67
2021/05/10 01:03:40;;;;;;;3.63;1.23;;;19.90;61.30;;;;;;5050201;28;20098;-69
2021/05/10 01:06:06;;;;;;;6.30;1.58;;;19.80;61.30;;;;;;5033393;28;20408;-67
2021/05/10 01:08:32;;;;;;;2.75;1.25;;;19.80;61.00;;;;;;5050609;28;20029;-67
2021/05/10 01:10:57;;;;;;;3.97;1.70;;;19.80;61.30;;;;;;5050844;28;20392;-67
2021/05/10 01:13:23;;;;;;;5.25;1.38;;;19.80;61.10;;;;;;5033410;28;20021;-67
2021/05/10 01:15:52;;;;;;;8.23;1.40;;;19.80;61.40;;;;;;5051075;28;20078;-67
2021/05/10 01:18:22;;;;;;;4.65;1.30;;;19.80;61.70;;;;;;5054092;28;20510;-67
2021/05/10 01:20:49;;;;;;;7.63;1.70;;;19.80;61.70;;;;;;5051313;28;20036;-67
2021/05/10 01:23:15;;;;;;;5.65;1.48;;;19.80;61.60;;;;;;5042679;28;20701;-68
2021/05/10 01:25:41;;;;;;;4.35;1.50;;;19.80;61.50;;;;;;5050392;28;20112;-69
2021/05/10 01:28:07;;;;;;;5.50;1.60;;;19.70;61.50;;;;;;5032432;28;20025;-67
2021/05/10 01:30:35;;;;;;;5.50;1.58;;;19.70;61.50;;;;;;5051076;28;20025;-64
2021/05/10 01:33:02;;;;;;;5.20;1.40;;;19.80;61.70;;;;;;5050657;28;20052;-68
2021/05/10 01:35:30;;;;;;;4.53;1.30;;;19.80;61.70;;;;;;5028398;28;20032;-67
2021/05/10 01:37:56;;;;;;;5.70;1.80;;;19.80;61.80;;;;;;5049918;28;20033;-68
2021/05/10 01:40:22;;;;;;;3.88;1.27;;;19.70;61.40;;;;;;5032833;28;20029;-67
2021/05/10 01:42:48;;;;;;;4.45;1.40;;;19.80;61.30;;;;;;5050014;28;20108;-67
2021/05/10 01:45:14;;;;;;;9.68;1.40;;;19.80;61.20;;;;;;5050195;28;20057;-67
2021/05/10 01:47:40;;;;;;;3.85;1.33;;;19.80;61.00;;;;;;5050274;28;20056;-69
2021/05/10 01:50:17;;;;;;;5.28;1.55;;;19.80;61.30;;;;;;5049828;28;20063;-66
2021/05/10 01:52:43;;;;;;;3.50;1.40;;;19.80;61.20;;;;;;5049815;28;20038;-67
2021/05/10 01:55:10;;;;;;;4.20;1.30;;;19.70;61.40;;;;;;5032353;28;20025;-66
2021/05/10 01:57:36;;;;;;;5.13;1.35;;;19.70;61.30;;;;;;5049507;28;20078;-67
2021/05/10 02:00:10;;;;;;;5.18;1.65;;;19.70;61.40;;;;;;5032720;28;20443;-66
2021/05/10 02:02:35;;;;;;;5.72;1.60;;;19.70;61.60;;;;;;5032404;28;20403;-67
2021/05/10 02:05:28;;;;;;;4.82;1.52;;;19.70;61.50;;;;;;5048994;28;20082;-67
2021/05/10 02:07:55;;;;;;;4.32;1.30;;;19.70;61.70;;;;;;5046583;28;20049;-66
2021/05/10 02:10:23;;;;;;;5.65;1.50;;;19.70;61.30;;;;;;5049702;28;20037;-67
2021/05/10 02:12:59;;;;;;;6.00;1.60;;;19.70;61.50;;;;;;5050077;28;20431;-67
2021/05/10 02:15:30;;;;;;;5.03;1.42;;;19.70;61.90;;;;;;5049862;28;20014;-66
2021/05/10 02:17:56;;;;;;;5.07;1.33;;;19.70;62.00;;;;;;5040017;28;20037;-66
2021/05/10 02:20:23;;;;;;;3.70;1.30;;;19.70;61.80;;;;;;5035229;28;20036;-68
2021/05/10 02:22:54;;;;;;;4.47;1.40;;;19.70;61.90;;;;;;5054167;28;20147;-67
2021/05/10 02:25:23;;;;;;;3.42;1.40;;;19.70;62.00;;;;;;5033733;28;20029;-67
2021/05/10 02:27:49;;;;;;;2.78;1.08;;;19.70;62.20;;;;;;5043331;28;20117;-67
2021/05/10 02:30:15;;;;;;;3.65;1.30;;;19.60;62.10;;;;;;5053426;28;20029;-67
2021/05/10 02:32:42;;;;;;;4.10;1.20;;;19.70;62.50;;;;;;5035523;28;20094;-67
2021/05/10 02:35:07;;;;;;;2.90;1.20;;;19.70;62.30;;;;;;5053618;28;20025;-66
2021/05/10 02:37:33;;;;;;;4.07;1.30;;;19.60;62.30;;;;;;5023494;28;20029;-67
2021/05/10 02:39:58;;;;;;;3.65;1.23;;;19.70;62.40;;;;;;5035981;28;20029;-66
2021/05/10 02:42:24;;;;;;;5.57;1.40;;;19.60;62.10;;;;;;5054032;28;20036;-67
2021/05/10 02:44:50;;;;;;;12.15;1.38;;;19.60;62.10;;;;;;5035382;28;20031;-65
2021/05/10 02:47:15;;;;;;;4.28;1.27;;;19.60;62.60;;;;;;5035266;28;20120;-66
2021/05/10 02:49:41;;;;;;;4.07;1.30;;;19.60;62.70;;;;;;5053691;28;20593;-68
2021/05/10 02:52:06;;;;;;;5.00;1.42;;;19.60;62.50;;;;;;5053605;28;20075;-67
2021/05/10 02:54:32;;;;;;;4.35;1.20;;;19.60;62.50;;;;;;5033989;28;20041;-70
2021/05/10 02:56:57;;;;;;;2.97;1.10;;;19.60;62.40;;;;;;5051195;28;20029;-67
2021/05/10 02:59:23;;;;;;;5.57;1.40;;;19.60;62.10;;;;;;5053519;28;20083;-69
2021/05/10 03:01:48;;;;;;;3.78;1.50;;;19.60;62.30;;;;;;5035542;28;20724;-67
2021/05/10 03:04:14;;;;;;;3.72;1.23;;;19.60;62.30;;;;;;5034600;28;20029;-66
2021/05/10 03:06:39;;;;;;;3.67;1.10;;;19.60;62.30;;;;;;5053190;28;20040;-68
2021/05/10 03:09:05;;;;;;;4.70;1.50;;;19.60;62.50;;;;;;5053579;28;20079;-67
2021/05/10 03:11:31;;;;;;;3.45;1.30;;;19.60;62.50;;;;;;5053164;28;20021;-67
2021/05/10 03:13:56;;;;;;;3.38;1.20;;;19.60;62.40;;;;;;5052737;28;20104;-67
2021/05/10 03:16:22;;;;;;;3.40;1.20;;;19.60;62.30;;;;;;5053450;28;20064;-67
2021/05/10 03:18:48;;;;;;;3.40;1.10;;;19.60;62.20;;;;;;5035072;28;20033;-67
2021/05/10 03:21:13;;;;;;;2.70;1.20;;;19.50;62.40;;;;;;5053574;28;20489;-66
2021/05/10 03:23:39;;;;;;;3.33;1.30;;;19.60;62.60;;;;;;5034831;28;20032;-67
2021/05/10 03:26:04;;;;;;;2.97;1.23;;;19.50;62.50;;;;;;5052137;28;20115;-66
2021/05/10 03:28:30;;;;;;;6.45;1.30;;;19.60;62.30;;;;;;5049461;28;20055;-66
2021/05/10 03:30:56;;;;;;;3.03;1.10;;;19.60;62.30;;;;;;5035299;28;20487;-67
2021/05/10 03:33:21;;;;;;;3.92;1.33;;;19.60;62.40;;;;;;5052450;28;20033;-69
2021/05/10 03:35:47;;;;;;;2.80;0.98;;;19.60;62.60;;;;;;5052231;28;20036;-67
2021/05/10 03:38:12;;;;;;;3.03;1.33;;;19.50;62.60;;;;;;5052856;28;20554;-65
2021/05/10 03:40:38;;;;;;;3.10;1.20;;;19.50;62.30;;;;;;5034398;28;20040;-67
2021/05/10 03:43:03;;;;;;;4.07;1.13;;;19.60;62.40;;;;;;5052663;28;20158;-67
2021/05/10 03:45:29;;;;;;;4.57;1.20;;;19.50;62.30;;;;;;5052419;28;20126;-67
2021/05/10 03:47:54;;;;;;;3.92;1.38;;;19.50;62.00;;;;;;5033696;28;20025;-68
2021/05/10 03:50:22;;;;;;;2.80;1.20;;;19.50;62.10;;;;;;5034875;28;20029;-67
2021/05/10 03:52:50;;;;;;;3.83;1.40;;;19.50;61.90;;;;;;5034880;28;20155;-67
2021/05/10 03:55:18;;;;;;;3.63;1.52;;;19.50;62.10;;;;;;5051737;28;20035;-67
2021/05/10 03:57:44;;;;;;;2.53;1.10;;;19.50;61.90;;;;;;5052118;28;20029;-65
2021/05/10 04:00:11;;;;;;;2.75;1.15;;;19.50;62.30;;;;;;5052208;28;20037;-67
2021/05/10 04:02:37;;;;;;;3.28;1.20;;;19.50;62.30;;;;;;5033986;28;20025;-66
2021/05/10 04:15:33;;;;;;;3.85;1.38;;;19.50;62.80;;;;;;5052279;28;20107;-67
2021/05/10 04:17:59;;;;;;;1.88;1.15;;;19.50;62.50;;;;;;5051993;28;20069;-67
2021/05/10 04:20:24;;;;;;;4.45;1.10;;;19.50;62.60;;;;;;5034480;28;20084;-69
2021/05/10 04:22:50;;;;;;;2.58;1.25;;;19.50;62.50;;;;;;5034259;28;20025;-66
2021/05/10 04:25:16;;;;;;;4.15;1.40;;;19.50;62.60;;;;;;5051436;28;20025;-63
2021/05/10 04:27:41;;;;;;;3.70;1.55;;;19.50;62.90;;;;;;5052127;28;20032;-66
2021/05/10 04:30:08;;;;;;;3.45;1.20;;;19.50;63.00;;;;;;5052377;28;20017;-65
2021/05/10 04:32:33;;;;;;;2.28;1.15;;;19.50;63.00;;;;;;5051663;28;20029;-65
2021/05/10 04:34:59;;;;;;;4.15;1.27;;;19.50;62.70;;;;;;5053551;28;20120;-66
2021/05/10 04:37:24;;;;;;;2.47;1.13;;;19.50;63.00;;;;;;5065487;28;20036;-66
2021/05/10 04:39:50;;;;;;;2.63;1.20;;;19.50;62.50;;;;;;5053981;28;20025;-69
2021/05/10 04:42:16;;;;;;;3.40;1.30;;;19.50;62.40;;;;;;5050291;28;20033;-64
2021/05/10 04:44:41;;;;;;;4.82;1.30;;;19.50;62.50;;;;;;5018816;28;20033;-70
2021/05/10 04:47:07;;;;;;;5.05;1.58;;;19.50;63.00;;;;;;5042063;28;20039;-65
2021/05/10 04:49:32;;;;;;;4.03;1.30;;;19.50;63.20;;;;;;5040496;28;20021;-68
2021/05/10 04:51:58;;;;;;;3.90;1.48;;;19.50;62.90;;;;;;5043094;28;20025;-65
2021/05/10 04:54:23;;;;;;;4.97;1.20;;;19.50;62.50;;;;;;5019525;28;20028;-67
2021/05/10 04:56:49;;;;;;;4.50;1.40;;;19.50;63.00;;;;;;5024364;28;20116;-66
2021/05/10 04:59:14;;;;;;;4.18;1.70;;;19.50;63.00;;;;;;5012843;28;20115;-64
2021/05/10 05:01:40;;;;;;;3.38;1.30;;;19.50;63.20;;;;;;5026870;28;20033;-64
2021/05/10 05:04:06;;;;;;;2.60;1.40;;;19.50;63.20;;;;;;5032919;28;20095;-66
2021/05/10 05:06:32;;;;;;;4.20;1.40;;;19.50;63.10;;;;;;5033343;28;20032;-65
2021/05/10 05:08:57;;;;;;;3.55;1.30;;;19.50;62.90;;;;;;5022524;28;20400;-65
2021/05/10 05:11:23;;;;;;;4.68;1.40;;;19.60;63.20;;;;;;5042841;28;20036;-66
2021/05/10 05:13:48;;;;;;;13.65;1.83;;;19.50;62.80;;;;;;5025040;28;20112;-66
2021/05/10 05:16:14;;;;;;;6.65;1.80;;;19.60;63.50;;;;;;5006789;28;20021;-65
2021/05/10 05:18:39;;;;;;;9.43;1.45;;;19.50;62.60;;;;;;5007489;28;20528;-66
2021/05/10 05:21:05;;;;;;;4.80;1.38;;;19.60;62.70;;;;;;5025250;28;20025;-66
2021/05/10 05:23:30;;;;;;;7.53;1.60;;;19.60;63.00;;;;;;5036679;28;20029;-65
2021/05/10 05:25:58;;;;;;;5.18;1.55;;;19.60;63.00;;;;;;5026779;28;20029;-70
2021/05/10 05:28:26;;;;;;;7.78;1.80;;;19.60;62.30;;;;;;5027119;28;20053;-68
2021/05/10 05:30:52;;;;;;;5.82;1.58;;;19.60;63.20;;;;;;5026468;28;20094;-65
2021/05/10 05:33:18;;;;;;;8.32;1.60;;;19.60;62.50;;;;;;5026490;28;20540;-65
2021/05/10 05:35:43;;;;;;;9.25;1.70;;;19.70;62.50;;;;;;5007739;28;20032;-69
2021/05/10 05:38:10;;;;;;;4.00;1.50;;;19.70;62.20;;;;;;5016279;28;20041;-68
2021/05/10 05:40:41;;;;;;;8.23;1.70;;;19.80;62.70;;;;;;5014981;28;20032;-65
2021/05/10 05:43:08;;;;;;;8.45;1.60;;;19.90;61.70;;;;;;5034176;28;20043;-67
2021/05/10 05:45:38;;;;;;;9.63;1.58;;;19.90;62.20;;;;;;5014657;28;20127;-64
2021/05/10 05:48:08;;;;;;;8.32;1.98;;;19.80;62.00;;;;;;5004670;28;20042;-67
2021/05/10 05:50:34;;;;;;;12.10;1.52;;;19.80;63.20;;;;;;5015210;28;20020;-64
2021/05/10 05:53:00;;;;;;;9.45;2.33;;;19.80;62.50;;;;;;5030751;28;20151;-66
2021/05/10 05:55:27;;;;;;;10.38;1.60;;;19.60;62.00;;;;;;5024292;28;20822;-65
2021/05/10 05:57:53;;;;;;;7.53;1.50;;;19.70;62.50;;;;;;5025442;28;20044;-65
2021/05/10 06:00:19;;;;;;;7.72;1.67;;;19.70;62.50;;;;;;5025043;28;20033;-66
2021/05/10 06:02:45;;;;;;;6.15;1.63;;;19.70;63.20;;;;;;5043162;28;20199;-65
2021/05/10 06:05:11;;;;;;;7.55;1.60;;;19.70;62.40;;;;;;5043500;28;20389;-66
2021/05/10 06:07:45;;;;;;;5.57;1.50;;;19.70;63.20;;;;;;5042892;28;20037;-65
2021/05/10 06:10:13;;;;;;;8.52;1.70;;;19.80;62.80;;;;;;5043507;28;20025;-66
2021/05/10 06:12:39;;;;;;;6.13;1.70;;;19.80;63.10;;;;;;5026920;28;20025;-68
2021/05/10 06:15:08;;;;;;;5.93;1.70;;;19.80;62.80;;;;;;5049368;28;20099;-65
2021/05/10 06:17:38;;;;;;;6.18;1.60;;;19.80;62.90;;;;;;5050473;28;20035;-67
2021/05/10 06:20:05;;;;;;;16.50;1.70;;;19.80;63.20;;;;;;5050516;28;20033;-66
2021/05/10 06:22:30;;;;;;;10.65;1.80;;;19.80;62.90;;;;;;5049124;28;20082;-68
2021/05/10 06:24:56;;;;;;;8.25;1.83;;;19.90;62.50;;;;;;5049379;28;20033;-64
2021/05/10 06:27:22;;;;;;;10.77;1.75;;;19.90;62.40;;;;;;5050383;28;20071;-67
2021/05/10 06:29:47;;;;;;;5.47;1.42;;;19.90;62.50;;;;;;5049877;28;20455;-66
2021/05/10 06:32:13;;;;;;;8.23;2.00;;;19.90;62.30;;;;;;5032442;28;20032;-68
2021/05/10 06:34:38;;;;;;;9.15;1.70;;;19.90;62.50;;;;;;5050066;28;20040;-66
2021/05/10 06:37:04;;;;;;;6.72;1.88;;;19.90;62.30;;;;;;5050252;28;20385;-66
2021/05/10 06:39:29;;;;;;;5.75;1.40;;;19.90;62.30;;;;;;5050838;28;20029;-66
2021/05/10 06:41:55;;;;;;;8.07;1.75;;;20.00;61.80;;;;;;5032578;28;20059;-66
2021/05/10 06:44:20;;;;;;;5.75;1.75;;;20.00;62.00;;;;;;5031536;28;20075;-67
2021/05/10 06:46:46;;;;;;;10.95;1.83;;;20.10;61.60;;;;;;5050258;28;20388;-68
2021/05/10 06:49:11;;;;;;;7.90;1.60;;;20.10;61.50;;;;;;5050064;28;20053;-66
2021/05/10 06:51:37;;;;;;;7.10;1.92;;;20.10;61.40;;;;;;5031820;28;20400;-67
2021/05/10 06:54:02;;;;;;;5.88;1.60;;;20.10;61.70;;;;;;5049882;28;20033;-67
2021/05/10 06:56:28;;;;;;;7.38;1.80;;;20.00;61.60;;;;;;5050227;28;20032;-63
2021/05/10 06:58:54;;;;;;;8.95;1.90;;;20.00;61.60;;;;;;5049877;28;20028;-66
2021/05/10 07:01:19;;;;;;;4.90;1.70;;;19.90;61.70;;;;;;5050254;28;20492;-66
2021/05/10 07:03:45;;;;;;;6.50;1.60;;;19.90;61.80;;;;;;5032069;28;20476;-67
2021/05/10 07:06:10;;;;;;;6.93;1.70;;;19.90;61.80;;;;;;5033702;28;20036;-67
2021/05/10 07:08:36;;;;;;;6.53;1.55;;;19.90;61.90;;;;;;5053651;28;20174;-66
2021/05/10 07:11:01;;;;;;;4.30;1.40;;;19.90;62.00;;;;;;5035788;28;20024;-68
2021/05/10 07:13:27;;;;;;;4.32;1.50;;;19.90;61.90;;;;;;5035108;28;20021;-65
2021/05/10 07:15:52;;;;;;;5.05;1.80;;;19.90;61.70;;;;;;5052972;28;20032;-67
2021/05/10 07:18:18;;;;;;;6.70;1.73;;;19.90;61.70;;;;;;5053690;28;20036;-67
2021/05/10 07:20:46;;;;;;;5.53;1.60;;;19.90;61.80;;;;;;5035524;28;20036;-66
2021/05/10 07:23:13;;;;;;;5.38;1.80;;;20.00;61.60;;;;;;5052805;28;20108;-64
2021/05/10 07:25:44;;;;;;;4.07;1.40;;;20.00;61.70;;;;;;5053174;28;20513;-66
2021/05/10 07:28:11;;;;;;;10.95;2.42;;;20.00;61.70;;;;;;5035473;28;20037;-66
2021/05/10 07:30:37;;;;;;;4.97;1.55;;;20.20;60.70;;;;;;5052827;28;20021;-66
2021/05/10 07:33:03;;;;;;;3.97;1.30;;;20.30;60.20;;;;;;5053147;28;20028;-66
2021/05/10 07:35:29;;;;;;;4.18;1.60;;;20.30;60.10;;;;;;5035093;28;20558;-66
2021/05/10 07:37:55;;;;;;;5.47;1.60;;;20.30;60.00;;;;;;5052773;28;20017;-67
2021/05/10 07:40:23;;;;;;;4.80;1.70;;;20.30;60.20;;;;;;5035344;28;20040;-66
2021/05/10 07:42:52;;;;;;;4.75;1.55;;;20.30;60.00;;;;;;5053142;28;20048;-65
2021/05/10 07:45:19;;;;;;;3.55;1.50;;;20.40;59.90;;;;;;5034294;28;20032;-67
2021/05/10 07:47:47;;;;;;;3.00;1.20;;;20.50;59.70;;;;;;5052853;28;20459;-67
2021/05/10 07:50:12;;;;;;;4.57;1.55;;;20.60;59.20;;;;;;5035190;28;20109;-64
2021/05/10 07:52:38;;;;;;;3.50;1.50;;;20.80;58.90;;;;;;5052341;28;20446;-66
2021/05/10 07:55:05;;;;;;;4.30;1.48;;;20.90;58.10;;;;;;5052757;28;20092;-65
2021/05/10 07:57:31;;;;;;;6.50;1.25;;;21.00;57.60;;;;;;5052996;28;20060;-67
2021/05/10 07:59:57;;;;;;;5.07;1.60;;;21.10;57.50;;;;;;5052460;28;20029;-66
2021/05/10 08:02:23;;;;;;;4.50;1.40;;;21.20;58.00;;;;;;5052653;28;20051;-66
2021/05/10 08:04:52;;;;;;;3.70;1.15;;;21.50;56.60;;;;;;5052391;28;20496;-65
2021/05/10 08:07:22;;;;;;;4.13;1.40;;;21.50;56.40;;;;;;5052128;28;20025;-66
2021/05/10 08:09:48;;;;;;;3.45;1.40;;;21.40;56.10;;;;;;5034730;28;20524;-67
2021/05/10 08:12:13;;;;;;;4.00;1.23;;;21.50;56.90;;;;;;5034339;28;20025;-64
2021/05/10 08:14:39;;;;;;;4.05;1.40;;;21.60;56.80;;;;;;5033959;28;20021;-66
2021/05/10 08:17:05;;;;;;;6.15;1.60;;;21.90;56.10;;;;;;5051975;28;20013;-64
2021/05/10 08:19:30;;;;;;;2.95;1.20;;;22.00;55.10;;;;;;5052691;28;20039;-67
2021/05/10 08:21:58;;;;;;;3.75;1.33;;;22.20;55.50;;;;;;5051957;28;20059;-66
2021/05/10 08:24:24;;;;;;;2.63;1.05;;;22.30;54.20;;;;;;5032462;28;20088;-67
2021/05/10 08:26:49;;;;;;;3.38;1.30;;;22.30;53.90;;;;;;5032229;28;20113;-66
2021/05/10 08:29:15;;;;;;;4.07;1.30;;;22.30;53.90;;;;;;5031774;28;20091;-68
2021/05/10 08:31:40;;;;;;;2.33;1.15;;;22.10;53.80;;;;;;5032711;28;20022;-67
2021/05/10 08:34:06;;;;;;;3.92;1.35;;;22.00;54.00;;;;;;5031926;28;20515;-65
2021/05/10 08:36:32;;;;;;;3.38;1.33;;;21.80;55.00;;;;;;5031832;28;20028;-67
2021/05/10 08:38:57;;;;;;;2.63;1.02;;;21.80;54.80;;;;;;5032228;28;20051;-68
2021/05/10 08:41:23;;;;;;;4.30;1.38;;;21.90;54.50;;;;;;5014320;28;20125;-66
2021/05/10 08:43:48;;;;;;;2.85;1.27;;;22.00;54.70;;;;;;5031306;28;20049;-66
2021/05/10 08:46:14;;;;;;;3.78;1.40;;;22.30;54.50;;;;;;5031805;28;20091;-68
2021/05/10 08:48:39;;;;;;;2.00;1.02;;;22.60;53.60;;;;;;5031807;28;20033;-66
2021/05/10 08:51:05;;;;;;;2.17;1.00;;;22.70;52.80;;;;;;5031513;28;20105;-66
2021/05/10 08:53:32;;;;;;;3.90;1.10;;;22.90;52.50;;;;;;5044560;28;20031;-67
2021/05/10 08:55:58;;;;;;;4.13;1.23;;;23.00;52.60;;;;;;5051263;28;20498;-65
2021/05/10 08:58:24;;;;;;;2.75;1.00;;;23.10;51.70;;;;;;5051285;28;20067;-67
2021/05/10 09:00:54;;;;;;;2.92;1.00;;;23.10;51.90;;;;;;5051610;28;20068;-67
2021/05/10 09:03:20;;;;;;;2.78;0.98;;;23.20;51.60;;;;;;5051344;28;20032;-67
2021/05/10 09:05:49;;;;;;;2.60;1.00;;;23.30;51.10;;;;;;5032893;28;20036;-66
2021/05/10 09:08:16;;;;;;;2.75;1.25;;;23.20;50.80;;;;;;5033616;28;20033;-66
2021/05/10 09:11:02;;;;;;;2.13;1.10;;;23.30;50.80;;;;;;5051396;28;20024;-67
2021/05/10 09:13:36;;;;;;;3.38;1.30;;;23.30;50.70;;;;;;5050327;28;20104;-67
2021/05/10 09:16:02;;;;;;;2.17;1.08;;;23.50;50.60;;;;;;5051253;28;20140;-65
2021/05/10 09:18:29;;;;;;;3.17;1.30;;;23.50;50.10;;;;;;5033340;28;20115;-68
2021/05/10 09:20:54;;;;;;;2.08;1.05;;;23.60;50.10;;;;;;5032937;28;20052;-66
2021/05/10 09:23:21;;;;;;;3.65;1.30;;;23.70;50.20;;;;;;5050996;28;20506;-63
2021/05/10 09:25:54;;;;;;;4.38;1.27;;;23.60;49.70;;;;;;5033022;28;20021;-65
2021/05/10 09:28:22;;;;;;;3.30;1.30;;;23.10;50.00;;;;;;5032733;28;20487;-65
2021/05/10 09:31:02;;;;;;;2.88;1.27;;;22.90;50.80;;;;;;5051142;28;20021;-66
2021/05/10 09:33:28;;;;;;;2.72;1.20;;;22.90;51.20;;;;;;5051104;28;20017;-66
2021/05/10 09:36:00;;;;;;;2.13;0.90;;;23.00;50.50;;;;;;5032436;28;20053;-66
2021/05/10 09:38:28;;;;;;;2.75;1.10;;;23.20;50.90;;;;;;5033129;28;20032;-67
2021/05/10 09:41:08;;;;;;;2.47;1.08;;;23.40;50.60;;;;;;5050885;28;20036;-66
2021/05/10 09:43:39;;;;;;;3.60;1.20;;;23.30;49.90;;;;;;5050173;28;20033;-68
2021/05/10 09:46:12;;;;;;;;;;;23.30;50.00;;;;;;5033261;28;20093;-66
2021/05/10 09:48:42;;;;;;;2.45;1.13;;;23.30;50.40;;;;;;5033050;28;19908;-66
2021/05/10 09:51:10;;;;;;;2.55;1.20;;;23.10;50.10;;;;;;5050383;28;20023;-66
2021/05/10 09:53:44;;;;;;;2.25;1.08;;;23.10;50.20;;;;;;5032843;28;20573;-65
2021/05/10 09:56:18;;;;;;;1.67;1.00;;;23.20;50.00;;;;;;5032593;28;20057;-67
2021/05/10 09:58:45;;;;;;;2.28;1.05;;;23.10;50.30;;;;;;5050656;28;20024;-67
2021/05/10 10:01:12;;;;;;;2.42;1.00;;;23.00;50.60;;;;;;5050660;28;20446;-67
2021/05/10 10:03:45;;;;;;;2.10;1.00;;;23.10;50.50;;;;;;5050411;28;20553;-66
2021/05/10 10:06:13;;;;;;;2.90;1.20;;;22.70;51.00;;;;;;5050332;28;20028;-66
2021/05/10 10:08:41;;;;;;;1.88;1.10;;;22.80;51.40;;;;;;5050479;28;20104;-68
2021/05/10 10:11:09;;;;;;;3.03;1.20;;;22.90;51.20;;;;;;5050254;28;20425;-67
2021/05/10 10:13:34;;;;;;;2.20;1.20;;;23.00;51.20;;;;;;5049954;28;20025;-65
2021/05/10 10:16:01;;;;;;;1.85;1.10;;;23.00;51.10;;;;;;5032433;28;20349;-66
2021/05/10 10:18:27;;;;;;;2.65;1.20;;;22.80;51.10;;;;;;5050261;28;20065;-68
2021/05/10 10:20:55;;;;;;;1.50;0.95;;;22.90;51.00;;;;;;5050135;28;20071;-66
2021/05/10 10:23:24;;;;;;;2.22;1.20;;;22.90;51.10;;;;;;5032409;28;20049;-64
2021/05/10 10:25:51;;;;;;;2.90;0.90;;;23.10;50.70;;;;;;5050133;28;20502;-66
2021/05/10 10:28:22;;;;;;;3.08;1.10;;;23.00;50.70;;;;;;5050073;28;20025;-66
2021/05/10 10:31:06;;;;;;;2.05;0.90;;;23.10;50.50;;;;;;5050580;28;20071;-66
2021/05/10 10:33:41;;;;;;;2.55;1.17;;;23.20;50.20;;;;;;5032064;28;20373;-66
2021/05/10 10:36:14;;;;;;;2.88;1.10;;;23.10;50.60;;;;;;5050135;28;20057;-64
2021/05/10 10:38:40;;;;;;;2.88;1.23;;;23.30;50.30;;;;;;5050587;28;20025;-67
2021/05/10 10:41:20;;;;;;;2.75;1.10;;;23.50;49.90;;;;;;5034260;28;20037;-69
2021/05/10 10:43:47;;;;;;;;;;;23.30;50.20;;;;;;5036520;28;20515;-65
2021/05/10 10:46:24;;;;;;;2.90;1.10;;;23.50;50.10;;;;;;5036090;28;19909;-68
2021/05/10 10:48:51;;;;;;;1.98;1.00;;;23.20;49.90;;;;;;5053560;28;20029;-67
2021/05/10 10:51:18;;;;;;;2.00;1.00;;;23.20;50.50;;;;;;5052747;28;21105;-70
2021/05/10 10:53:44;;;;;;;2.65;1.10;;;23.30;50.20;;;;;;5052736;28;20025;-65
2021/05/10 10:56:10;;;;;;;5.18;1.25;;;23.50;50.50;;;;;;5045330;28;20403;-65
2021/05/10 10:58:39;;;;;;;2.75;1.20;;;23.50;50.40;;;;;;5054049;28;20028;-68
2021/05/10 11:01:13;;;;;;;3.45;1.05;;;23.20;50.40;;;;;;5053912;28;20025;-69
2021/05/10 11:03:39;;;;;;;2.55;1.00;;;23.00;50.90;;;;;;5051879;28;20591;-65
2021/05/10 11:06:05;;;;;;;1.67;1.00;;;22.70;51.40;;;;;;5052247;28;20032;-68
2021/05/10 11:08:40;;;;;;;2.15;0.90;;;22.70;51.70;;;;;;5052395;28;20108;-67
2021/05/10 11:11:07;;;;;;;2.50;1.10;;;22.80;51.70;;;;;;5051997;28;20047;-68
2021/05/10 11:13:36;;;;;;;2.80;1.05;;;23.00;51.00;;;;;;5035494;28;20096;-68
2021/05/10 11:16:06;;;;;;;2.45;0.93;;;23.20;50.60;;;;;;5053415;28;20048;-68
2021/05/10 11:18:40;;;;;;;2.75;1.20;;;23.30;50.40;;;;;;5051661;28;20500;-68
2021/05/10 11:21:21;;;;;;;5.95;1.10;;;23.40;50.30;;;;;;5024921;28;20033;-68
2021/05/10 11:23:55;;;;;;;6.22;1.30;;;23.50;50.10;;;;;;5052834;28;20056;-68
2021/05/10 11:26:52;;;;;;;2.40;0.95;;;23.50;50.30;;;;;;5047963;28;20093;-66
2021/05/10 11:29:24;;;;;;;5.53;1.20;;;23.50;50.00;;;;;;5052678;28;20060;-67
2021/05/10 11:31:50;;;;;;;2.42;1.08;;;23.50;50.60;;;;;;5035203;28;20024;-64
2021/05/10 11:34:23;;;;;;;4.63;1.25;;;23.40;50.60;;;;;;5034570;28;20031;-67
2021/05/10 11:36:53;;;;;;;3.47;1.10;;;23.40;50.20;;;;;;5052643;28;20096;-66
2021/05/10 11:39:29;;;;;;;3.30;0.90;;;23.40;50.30;;;;;;5034669;28;20035;-67
2021/05/10 11:42:01;;;;;;;2.97;0.98;;;23.20;50.90;;;;;;5050708;28;20442;-67
2021/05/10 11:44:38;;;;;;;11.02;2.45;;;23.10;51.60;;;;;;5051821;28;20025;-66
2021/05/10 11:47:08;;;;;;;9.65;2.08;;;23.20;51.50;;;;;;5044496;28;20033;-66
2021/05/10 11:49:43;;;;;;;28.27;6.32;;;23.30;51.40;;;;;;5033112;28;20071;-66
2021/05/10 11:52:13;;;;;;;46.95;10.68;;;23.20;51.50;;;;;;5048773;28;20083;-65
2021/05/10 11:54:44;;;;;;;64.53;16.63;;;23.00;51.70;;;;;;5051894;28;20036;-66
2021/05/10 11:57:12;;;;;;;97.45;23.02;;;22.90;52.50;;;;;;5049195;28;20087;-66
2021/05/10 11:59:43;;;;;;;88.70;21.30;;;22.90;52.60;;;;;;5033026;28;20029;-66
2021/05/10 12:02:08;;;;;;;117.18;28.80;;;22.90;52.80;;;;;;5047733;28;20025;-66
2021/05/10 12:04:35;;;;;;;86.28;21.50;;;22.90;52.80;;;;;;5050671;28;20079;-66
2021/05/10 12:07:01;;;;;;;87.57;22.05;;;22.90;53.00;;;;;;5029732;28;20031;-65
2021/05/10 12:10:02;;;;;;;121.13;29.70;;;22.90;53.20;;;;;;5033718;28;20025;-65
2021/05/10 12:12:42;;;;;;;62.22;19.13;;;22.80;53.40;;;;;;5051800;28;20171;-67
2021/05/10 12:15:14;;;;;;;86.53;24.27;;;22.80;53.50;;;;;;5051609;28;20032;-65
2021/05/10 12:17:43;;;;;;;78.00;21.20;;;22.80;53.80;;;;;;5049252;28;20021;-65
2021/05/10 12:20:25;;;;;;;84.90;21.85;;;22.80;53.60;;;;;;5051550;28;20060;-66
2021/05/10 12:22:55;;;;;;;79.10;20.05;;;22.70;53.80;;;;;;5057812;28;20157;-66
2021/05/10 12:25:30;;;;;;;76.70;19.73;;;22.60;54.70;;;;;;5052011;28;20094;-66
2021/05/10 12:28:24;;;;;;;75.75;22.35;;;22.60;54.70;;;;;;5050806;28;20025;-65
2021/05/10 12:30:55;;;;;;;82.38;22.45;;;22.50;55.00;;;;;;5028165;28;20120;-66
2021/05/10 12:33:26;;;;;;;87.72;23.25;;;22.40;55.00;;;;;;5032807;28;20070;-65
2021/05/10 12:36:04;;;;;;;75.00;19.83;;;22.50;55.00;;;;;;5032971;28;20488;-65
2021/05/10 12:38:33;;;;;;;81.75;21.40;;;22.50;55.00;;;;;;5033503;28;20040;-66
2021/05/10 12:41:01;;;;;;;76.05;20.27;;;22.40;55.50;;;;;;5042931;28;20032;-66
2021/05/10 12:43:28;;;;;;;67.70;20.65;;;22.40;55.70;;;;;;5047000;28;20031;-65
2021/05/10 12:45:57;;;;;;;65.15;18.50;;;22.40;55.80;;;;;;5050615;28;20033;-66
2021/05/10 12:48:25;;;;;;;59.03;16.85;;;22.40;55.90;;;;;;5050473;28;20032;-66
2021/05/10 12:50:57;;;;;;;48.92;17.10;;;22.40;56.00;;;;;;5048919;28;20114;-66
2021/05/10 12:53:39;;;;;;;53.75;17.55;;;22.30;56.00;;;;;;5051076;28;20109;-66
2021/05/10 12:56:11;;;;;;;52.92;16.05;;;22.30;56.30;;;;;;5031211;28;20067;-66
2021/05/10 12:58:41;;;;;;;54.35;15.30;;;22.30;56.40;;;;;;5051166;28;20033;-65